Kinsman, Illinois
Current Conditions -  °F | °C
As of 6:55 AM on Thursday 30 Oct 2014 (Local Time) from KC09 Reporting Station
Clear Clear  
Wind Chill: 31°   Ceiling: Unl
Heat Index: 31°   Visibility: 7mi
Dew Point: 31°   Wind: 0mph
Humidity: 99%   Direction: NA
Pressure: 30.14"   Gusts: NA
Location:  41.19°N, 88.57°W
Report Text: KC09 301155Z AUTO 00000KT 7SM CLR M01/M01 A3014 RMK AO2 T10061007 10005 21015
Loading
Personal Weather Stations






























Interactive Weather Map
Tropical Storm Tracking
New forecast layout! Learn more

10-Day Weather Forecast

Advertisements
Track Severe Weather on mobile